Time;durP1;ratioP1;P1;durP2;ratioP2;P2;SDS_P1;SDS_P2;PMS_P1;PMS_P2;Temp;Humidity;BMP_temperature;BMP_pressure;BME280_temperature;BME280_humidity;BME280_pressure;Samples;Min_cycle;Max_cycle;Signal;HPM_P1;HPM_P2
2023/03/23 00:00:11;;;;;;;1.77;1.60;;;18.00;47.90;;;;;;5086285;27;45356;-69
2023/03/23 00:02:38;;;;;;;1.70;1.60;;;18.00;47.90;;;;;;5085833;27;46630;-69
2023/03/23 00:05:06;;;;;;;3.20;1.88;;;18.00;47.90;;;;;;5085749;27;45232;-69
2023/03/23 00:07:35;;;;;;;2.40;2.15;;;18.00;47.90;;;;;;5085856;27;45532;-68
2023/03/23 00:10:02;;;;;;;2.50;1.80;;;18.00;48.60;;;;;;5086125;27;45355;-69
2023/03/23 00:12:32;;;;;;;3.63;2.30;;;18.00;48.00;;;;;;5085671;27;46302;-69
2023/03/23 00:15:00;;;;;;;2.67;1.88;;;18.00;48.00;;;;;;5085789;27;45297;-69
2023/03/23 00:17:27;;;;;;;2.85;2.10;;;18.00;48.10;;;;;;5085818;27;45336;-69
2023/03/23 00:19:54;;;;;;;3.38;1.92;;;18.00;48.10;;;;;;5085977;27;45423;-69
2023/03/23 00:22:21;;;;;;;2.72;2.13;;;18.00;48.10;;;;;;5085463;27;45551;-69
2023/03/23 00:24:50;;;;;;;2.30;2.10;;;18.00;48.10;;;;;;5085362;27;45401;-68
2023/03/23 00:27:17;;;;;;;2.10;1.90;;;18.00;48.10;;;;;;5085780;27;45390;-69
2023/03/23 00:29:44;;;;;;;2.38;1.63;;;17.90;48.10;;;;;;5085942;27;45446;-69
2023/03/23 00:32:13;;;;;;;2.05;1.85;;;17.90;48.10;;;;;;5085453;27;45462;-69
2023/03/23 00:34:41;;;;;;;3.05;2.25;;;17.90;48.10;;;;;;5085588;27;45327;-69
2023/03/23 00:37:08;;;;;;;4.05;2.20;;;17.90;48.10;;;;;;5085621;27;45300;-69
2023/03/23 00:39:36;;;;;;;2.03;1.85;;;17.90;48.10;;;;;;5085833;27;45248;-69
2023/03/23 00:42:04;;;;;;;2.60;2.10;;;17.90;48.20;;;;;;5085368;27;45321;-69
2023/03/23 00:44:34;;;;;;;2.92;1.90;;;17.90;48.20;;;;;;5085280;27;45675;-69
2023/03/23 00:47:01;;;;;;;2.88;2.05;;;17.90;48.20;;;;;;5085497;27;45307;-69
2023/03/23 00:49:28;;;;;;;2.67;2.15;;;17.90;48.20;;;;;;5085578;27;45356;-69
2023/03/23 00:51:56;;;;;;;1.95;1.80;;;17.90;48.20;;;;;;5085198;28;46727;-69
2023/03/23 00:54:23;;;;;;;2.90;1.92;;;17.90;48.20;;;;;;5085298;27;45245;-69
2023/03/23 00:56:50;;;;;;;3.17;2.03;;;17.80;48.20;;;;;;5085264;27;45270;-69
2023/03/23 00:59:18;;;;;;;3.25;2.25;;;17.80;48.20;;;;;;5085483;27;45344;-69
2023/03/23 01:01:45;;;;;;;3.10;2.28;;;17.80;48.20;;;;;;5087537;27;45491;-69
2023/03/23 01:04:12;;;;;;;2.63;1.92;;;17.80;48.20;;;;;;5088664;27;45461;-69
2023/03/23 01:06:39;;;;;;;3.25;2.47;;;17.80;48.20;;;;;;5088674;27;45281;-69
2023/03/23 01:09:07;;;;;;;2.88;2.40;;;17.80;48.20;;;;;;5088908;27;45320;-69
2023/03/23 01:11:34;;;;;;;2.25;2.05;;;17.80;48.20;;;;;;5088457;27;45448;-68
2023/03/23 01:14:01;;;;;;;2.30;2.10;;;17.80;48.20;;;;;;5088723;27;45463;-69
2023/03/23 01:16:29;;;;;;;2.75;2.10;;;17.80;48.30;;;;;;5088507;27;45475;-69
2023/03/23 01:18:56;;;;;;;2.35;2.15;;;17.80;48.20;;;;;;5088828;27;45294;-69
2023/03/23 01:21:24;;;;;;;2.63;2.10;;;17.80;48.30;;;;;;5088369;27;46536;-69
2023/03/23 01:23:51;;;;;;;3.45;2.50;;;17.80;48.30;;;;;;5088111;27;45450;-69
2023/03/23 01:26:20;;;;;;;3.78;2.25;;;17.80;48.30;;;;;;5088652;27;45320;-69
2023/03/23 01:28:46;;;;;;;3.00;2.33;;;17.80;48.30;;;;;;5088583;27;45316;-69
2023/03/23 01:31:15;;;;;;;3.70;2.47;;;17.80;48.30;;;;;;5088116;27;45642;-67
2023/03/23 01:33:43;;;;;;;2.78;2.28;;;17.80;48.20;;;;;;5088361;27;45292;-68
2023/03/23 01:36:11;;;;;;;2.50;2.30;;;17.80;48.30;;;;;;5088124;27;45280;-69
2023/03/23 01:38:38;;;;;;;3.63;2.47;;;17.80;48.30;;;;;;5088541;27;45234;-69
2023/03/23 01:41:06;;;;;;;4.55;2.47;;;17.80;48.20;;;;;;5088079;27;45483;-68
2023/03/23 01:43:32;;;;;;;2.50;2.28;;;17.80;48.30;;;;;;5087958;27;45407;-68
2023/03/23 01:45:59;;;;;;;2.45;2.25;;;17.80;48.30;;;;;;5088019;27;45235;-69
2023/03/23 01:48:27;;;;;;;3.10;2.10;;;17.80;48.30;;;;;;5088369;27;45170;-69
2023/03/23 01:50:58;;;;;;;2.30;2.10;;;17.70;48.20;;;;;;5087795;27;46391;-69
2023/03/23 01:53:26;;;;;;;2.25;2.13;;;17.70;48.30;;;;;;5087937;27;45355;-69
2023/03/23 01:55:53;;;;;;;2.42;2.15;;;17.70;48.30;;;;;;5087895;27;45321;-69
2023/03/23 01:58:20;;;;;;;2.90;2.30;;;17.70;48.30;;;;;;5088281;27;45229;-69
2023/03/23 02:00:49;;;;;;;2.45;2.25;;;17.70;48.30;;;;;;5087777;27;46364;-69
2023/03/23 02:03:17;;;;;;;3.55;2.40;;;17.70;48.30;;;;;;5087900;27;45278;-69
2023/03/23 02:05:44;;;;;;;2.95;2.30;;;17.70;48.30;;;;;;5087640;27;45273;-69
2023/03/23 02:08:13;;;;;;;3.72;2.35;;;17.70;48.30;;;;;;5087910;27;45366;-69
2023/03/23 02:10:40;;;;;;;2.33;2.13;;;17.70;48.30;;;;;;5087716;27;45302;-69
2023/03/23 02:13:08;;;;;;;3.70;2.40;;;17.70;48.30;;;;;;5083854;27;45330;-69
2023/03/23 02:15:40;;;;;;;2.35;2.10;;;17.70;48.30;;;;;;5087581;27;45320;-69
2023/03/23 02:18:09;;;;;;;3.28;2.28;;;17.70;48.30;;;;;;5087876;27;45408;-69
2023/03/23 02:20:57;;;;;;;2.85;2.15;;;17.70;48.30;;;;;;5087646;27;47282;-68
2023/03/23 02:23:46;;;;;;;3.33;2.30;;;17.70;48.30;;;;;;5087333;27;45302;-69
2023/03/23 02:26:21;;;;;;;3.08;2.13;;;17.70;48.30;;;;;;5084651;27;45270;-69
2023/03/23 02:29:11;;;;;;;2.30;2.10;;;17.60;48.30;;;;;;5087636;27;45423;-69
2023/03/23 02:32:20;;;;;;;2.95;2.42;;;17.60;48.20;;;;;;5087352;27;45368;-69
2023/03/23 02:34:49;;;;;;;2.40;2.17;;;17.60;48.30;;;;;;5071491;27;45270;-68
2023/03/23 02:37:20;;;;;;;2.88;2.60;;;17.60;48.30;;;;;;5087189;27;45350;-69
2023/03/23 02:39:49;;;;;;;2.85;2.40;;;17.60;48.90;;;;;;5087542;27;45184;-69
2023/03/23 02:42:17;;;;;;;3.20;2.17;;;17.60;48.30;;;;;;5087098;27;45700;-69
2023/03/23 02:44:45;;;;;;;2.25;1.98;;;17.60;48.30;;;;;;5087110;27;45501;-67
2023/03/23 02:47:14;;;;;;;2.45;2.25;;;17.60;48.30;;;;;;5087117;27;45185;-67
2023/03/23 02:49:41;;;;;;;2.50;2.30;;;17.60;48.30;;;;;;5087458;27;45350;-67
2023/03/23 02:52:13;;;;;;;2.58;2.38;;;17.60;48.30;;;;;;5086927;27;46603;-68
2023/03/23 02:54:40;;;;;;;3.13;2.50;;;17.60;48.30;;;;;;5086902;27;45241;-67
2023/03/23 02:57:07;;;;;;;2.63;2.22;;;17.60;48.30;;;;;;5087279;27;45177;-67
2023/03/23 02:59:34;;;;;;;2.60;2.40;;;17.60;48.30;;;;;;5087108;27;45460;-68
2023/03/23 03:02:06;;;;;;;2.65;2.28;;;17.60;48.30;;;;;;5086738;27;45465;-68
2023/03/23 03:04:33;;;;;;;2.47;2.15;;;17.60;48.20;;;;;;5086776;27;45454;-68
2023/03/23 03:07:12;;;;;;;1.88;1.77;;;17.60;48.20;;;;;;5086769;27;45340;-68
2023/03/23 03:09:43;;;;;;;3.83;2.47;;;17.60;48.20;;;;;;5086930;27;45171;-68
2023/03/23 03:12:12;;;;;;;2.30;2.10;;;17.60;48.20;;;;;;5086604;27;45481;-68
2023/03/23 03:14:40;;;;;;;3.60;2.42;;;17.60;48.80;;;;;;5086791;27;45214;-68
2023/03/23 03:17:08;;;;;;;2.40;2.10;;;17.60;48.20;;;;;;5086622;27;45315;-68
2023/03/23 03:19:36;;;;;;;2.22;2.03;;;17.60;48.20;;;;;;5086872;27;45246;-68
2023/03/23 03:22:04;;;;;;;2.22;2.00;;;17.60;48.20;;;;;;5086508;27;45386;-68
2023/03/23 03:24:32;;;;;;;2.60;2.28;;;17.60;48.20;;;;;;5085666;27;45328;-68
2023/03/23 03:27:00;;;;;;;2.88;2.28;;;17.60;48.20;;;;;;5086554;27;45370;-68
2023/03/23 03:29:29;;;;;;;2.72;1.90;;;17.60;48.20;;;;;;5086718;27;45260;-68
2023/03/23 03:31:58;;;;;;;3.17;2.30;;;17.60;48.20;;;;;;5086343;27;46655;-68
2023/03/23 03:34:25;;;;;;;2.20;2.00;;;17.60;48.20;;;;;;5086322;28;45331;-68
2023/03/23 03:36:52;;;;;;;2.30;2.10;;;17.60;48.10;;;;;;5086330;27;45265;-68
2023/03/23 03:39:20;;;;;;;2.10;2.00;;;17.60;48.10;;;;;;5086605;27;45261;-68
2023/03/23 03:41:48;;;;;;;2.35;2.10;;;17.60;48.10;;;;;;5086226;27;45390;-68
2023/03/23 03:44:15;;;;;;;2.50;2.28;;;17.60;48.10;;;;;;5086210;27;45341;-68
2023/03/23 03:46:42;;;;;;;2.92;2.25;;;17.60;48.10;;;;;;5086008;27;45335;-68
2023/03/23 03:49:11;;;;;;;2.40;2.20;;;17.60;48.10;;;;;;5086402;27;45392;-68
2023/03/23 03:51:38;;;;;;;2.38;2.17;;;17.60;48.10;;;;;;5086019;27;47362;-68
2023/03/23 03:54:05;;;;;;;2.55;2.35;;;17.60;48.10;;;;;;5086030;27;45268;-68
2023/03/23 03:56:37;;;;;;;2.10;1.83;;;17.60;48.10;;;;;;5086072;27;45264;-68
2023/03/23 03:59:06;;;;;;;2.42;2.13;;;17.60;48.10;;;;;;5086359;27;45546;-68
2023/03/23 04:01:33;;;;;;;2.60;2.10;;;17.60;48.10;;;;;;5085781;27;45316;-68
2023/03/23 04:04:00;;;;;;;1.90;1.75;;;17.60;48.10;;;;;;5086237;27;45256;-68
2023/03/23 04:06:27;;;;;;;2.00;1.80;;;17.60;48.10;;;;;;5085787;27;45409;-68
2023/03/23 04:08:55;;;;;;;2.35;1.90;;;17.60;48.10;;;;;;5086077;27;45303;-68
2023/03/23 04:11:21;;;;;;;2.00;1.90;;;17.60;48.10;;;;;;5085776;27;46709;-68
2023/03/23 04:13:48;;;;;;;2.17;2.00;;;17.60;48.10;;;;;;5085670;27;45295;-67
2023/03/23 04:16:17;;;;;;;2.70;1.95;;;17.60;48.00;;;;;;5085816;27;45366;-68
2023/03/23 04:18:44;;;;;;;2.28;2.08;;;17.60;48.10;;;;;;5086140;27;45667;-68
2023/03/23 04:21:11;;;;;;;2.80;1.90;;;17.60;48.00;;;;;;5085535;27;45516;-67
2023/03/23 04:23:38;;;;;;;2.00;1.90;;;17.60;48.10;;;;;;5085477;28;45320;-67
2023/03/23 04:26:05;;;;;;;2.17;2.00;;;17.60;48.10;;;;;;5085664;27;45367;-68
2023/03/23 04:28:33;;;;;;;2.25;1.90;;;17.60;48.10;;;;;;5085865;27;45419;-68
2023/03/23 04:31:00;;;;;;;1.88;1.77;;;17.60;48.10;;;;;;5085645;27;46619;-68
2023/03/23 04:33:29;;;;;;;2.25;2.00;;;17.60;48.10;;;;;;5085633;27;45203;-68
2023/03/23 04:35:57;;;;;;;2.15;1.83;;;17.60;48.20;;;;;;5086758;27;45385;-68
2023/03/23 04:38:24;;;;;;;2.85;2.33;;;17.60;48.10;;;;;;5089415;27;45378;-68
2023/03/23 04:40:52;;;;;;;2.20;2.00;;;17.60;48.20;;;;;;5089094;27;47647;-68
2023/03/23 04:43:21;;;;;;;2.20;2.00;;;17.60;48.70;;;;;;5088991;27;45197;-68
2023/03/23 04:45:48;;;;;;;2.35;2.15;;;17.60;48.10;;;;;;5088786;27;45381;-68
2023/03/23 04:48:14;;;;;;;1.92;1.67;;;17.60;48.10;;;;;;5089309;27;45310;-68
2023/03/23 04:50:42;;;;;;;1.80;1.65;;;17.60;48.10;;;;;;5088842;27;46399;-68
2023/03/23 04:53:10;;;;;;;1.80;1.70;;;17.60;48.10;;;;;;5088818;27;45267;-68
2023/03/23 04:55:37;;;;;;;2.30;1.77;;;17.60;48.20;;;;;;5089190;27;45354;-68
2023/03/23 04:58:04;;;;;;;1.88;1.65;;;17.60;48.20;;;;;;5089172;27;45466;-68
2023/03/23 05:00:31;;;;;;;1.90;1.80;;;17.60;48.20;;;;;;5088774;27;45352;-68
2023/03/23 05:02:58;;;;;;;2.03;1.90;;;17.60;48.20;;;;;;5088804;27;45340;-68
2023/03/23 05:05:27;;;;;;;2.25;1.98;;;17.60;48.20;;;;;;5088852;27;45213;-68
2023/03/23 05:07:55;;;;;;;1.90;1.80;;;17.60;48.10;;;;;;5089074;27;45391;-68
2023/03/23 05:10:22;;;;;;;1.90;1.80;;;17.60;48.20;;;;;;5088597;27;46594;-68
2023/03/23 05:12:49;;;;;;;2.33;1.90;;;17.60;48.20;;;;;;5088590;27;45250;-68
2023/03/23 05:15:16;;;;;;;1.85;1.75;;;17.60;48.20;;;;;;5088589;27;45181;-69
2023/03/23 05:17:44;;;;;;;2.13;1.92;;;17.60;48.20;;;;;;5088829;27;45369;-68
2023/03/23 05:20:12;;;;;;;2.05;1.90;;;17.60;48.20;;;;;;5088527;27;46645;-69
2023/03/23 05:22:39;;;;;;;2.33;2.13;;;17.60;48.20;;;;;;5088220;27;45280;-68
2023/03/23 05:25:09;;;;;;;1.90;1.80;;;17.60;48.20;;;;;;5088102;27;45263;-69
2023/03/23 05:27:37;;;;;;;2.30;1.80;;;17.60;48.20;;;;;;5088625;27;45294;-69
2023/03/23 05:30:04;;;;;;;1.80;1.70;;;17.60;48.20;;;;;;5088068;27;45253;-68
2023/03/23 05:32:31;;;;;;;1.98;1.63;;;17.60;48.20;;;;;;5088190;27;45351;-68
2023/03/23 05:34:58;;;;;;;2.47;1.83;;;17.60;48.10;;;;;;5088805;27;45309;-69
2023/03/23 05:37:26;;;;;;;2.00;1.80;;;17.60;48.30;;;;;;5088487;27;45373;-68
2023/03/23 05:39:55;;;;;;;2.13;1.88;;;17.60;48.10;;;;;;5088147;27;45383;-69
2023/03/23 05:42:23;;;;;;;1.95;1.70;;;17.60;48.10;;;;;;5088152;27;45356;-69
2023/03/23 05:44:51;;;;;;;1.92;1.60;;;17.60;48.10;;;;;;5088137;27;45325;-68
2023/03/23 05:47:18;;;;;;;1.75;1.60;;;17.60;48.10;;;;;;5088076;27;45338;-69
2023/03/23 05:49:44;;;;;;;1.58;1.48;;;17.60;48.20;;;;;;5087988;27;46373;-69
2023/03/23 05:52:11;;;;;;;1.80;1.70;;;17.60;48.10;;;;;;5087938;27;45410;-69
2023/03/23 05:54:38;;;;;;;2.10;1.77;;;17.60;48.10;;;;;;5088182;27;45316;-68
2023/03/23 05:57:05;;;;;;;1.88;1.70;;;17.60;48.10;;;;;;5088018;27;45506;-68
2023/03/23 05:59:33;;;;;;;2.10;1.77;;;17.60;48.10;;;;;;5087706;27;46681;-68
2023/03/23 06:02:00;;;;;;;1.90;1.70;;;17.60;48.10;;;;;;5087802;27;45310;-68
2023/03/23 06:04:27;;;;;;;1.77;1.48;;;17.60;48.20;;;;;;5088131;27;45434;-68
2023/03/23 06:06:54;;;;;;;1.67;1.50;;;17.60;48.80;;;;;;5087970;27;45439;-68
2023/03/23 06:09:21;;;;;;;2.83;1.70;;;17.60;48.20;;;;;;5087512;27;46524;-68
2023/03/23 06:11:48;;;;;;;2.17;1.98;;;17.60;48.20;;;;;;5087556;27;45308;-67
2023/03/23 06:14:16;;;;;;;1.70;1.60;;;17.60;48.20;;;;;;5087690;27;45374;-67
2023/03/23 06:16:44;;;;;;;2.05;1.85;;;17.60;48.20;;;;;;5087666;27;45370;-67
2023/03/23 06:19:11;;;;;;;2.95;1.70;;;17.60;48.20;;;;;;5087521;27;45478;-67
2023/03/23 06:21:38;;;;;;;1.60;1.50;;;17.60;48.30;;;;;;5087522;27;45314;-67
2023/03/23 06:24:05;;;;;;;3.20;1.70;;;17.60;48.30;;;;;;5087336;27;45296;-67
2023/03/23 06:26:35;;;;;;;1.90;1.80;;;17.60;48.30;;;;;;5087447;27;45259;-68
2023/03/23 06:29:02;;;;;;;1.73;1.63;;;17.60;48.30;;;;;;5087133;27;46365;-68
2023/03/23 06:31:28;;;;;;;1.98;1.73;;;17.60;48.30;;;;;;5087012;27;45284;-68
2023/03/23 06:33:57;;;;;;;1.85;1.48;;;17.60;48.90;;;;;;5087198;27;45257;-67
2023/03/23 06:36:26;;;;;;;1.52;1.42;;;17.60;48.30;;;;;;5087311;27;45553;-68
2023/03/23 06:38:53;;;;;;;1.70;1.40;;;17.60;48.30;;;;;;5086896;27;45283;-67
2023/03/23 06:41:20;;;;;;;1.75;1.65;;;17.60;48.30;;;;;;5086873;27;45320;-67
2023/03/23 06:43:47;;;;;;;1.85;1.60;;;17.60;48.30;;;;;;5087172;27;45317;-68
2023/03/23 06:46:13;;;;;;;1.88;1.77;;;17.60;48.20;;;;;;5086887;27;45301;-67
2023/03/23 06:48:41;;;;;;;3.60;1.52;;;17.60;48.30;;;;;;5086705;27;46690;-68
2023/03/23 06:51:09;;;;;;;1.60;1.50;;;17.60;48.30;;;;;;5086753;27;45273;-67
2023/03/23 06:53:36;;;;;;;4.43;1.75;;;17.60;48.30;;;;;;5087157;27;45165;-67
2023/03/23 06:56:02;;;;;;;2.20;1.63;;;17.50;48.20;;;;;;5086909;27;45375;-69
2023/03/23 06:58:29;;;;;;;1.73;1.42;;;17.60;48.40;;;;;;5085930;27;46601;-68
2023/03/23 07:00:58;;;;;;;1.73;1.63;;;17.60;48.40;;;;;;5086633;27;45455;-67
2023/03/23 07:03:25;;;;;;;1.58;1.45;;;17.50;48.30;;;;;;5086801;27;45240;-68
2023/03/23 07:05:52;;;;;;;2.03;1.75;;;17.60;48.40;;;;;;5086647;27;45376;-68
2023/03/23 07:08:20;;;;;;;1.77;1.60;;;17.60;48.40;;;;;;5086376;27;45387;-68
2023/03/23 07:10:47;;;;;;;1.83;1.67;;;17.50;48.40;;;;;;5086445;27;45348;-68
2023/03/23 07:13:14;;;;;;;2.70;2.22;;;17.60;48.40;;;;;;5086553;27;45244;-68
2023/03/23 07:15:41;;;;;;;2.45;1.90;;;17.50;48.40;;;;;;5086656;27;45391;-68
2023/03/23 07:18:08;;;;;;;1.77;1.60;;;17.50;48.40;;;;;;5086431;27;45605;-67
2023/03/23 07:20:35;;;;;;;3.00;1.60;;;17.50;48.40;;;;;;5086313;27;45414;-68
2023/03/23 07:23:04;;;;;;;1.48;1.38;;;17.50;48.40;;;;;;5086548;27;45358;-68
2023/03/23 07:25:33;;;;;;;1.70;1.60;;;17.50;48.50;;;;;;5086163;27;45242;-68
2023/03/23 07:28:00;;;;;;;2.67;1.55;;;17.50;48.50;;;;;;5086078;27;45720;-68
2023/03/23 07:30:28;;;;;;;1.65;1.55;;;17.50;48.50;;;;;;5086147;27;45382;-68
2023/03/23 07:32:55;;;;;;;2.20;1.50;;;17.50;48.50;;;;;;5086207;27;45249;-68
2023/03/23 07:35:22;;;;;;;2.13;1.90;;;17.50;48.50;;;;;;5086540;27;45393;-68
2023/03/23 07:37:49;;;;;;;1.55;1.45;;;17.50;48.60;;;;;;5085938;27;46687;-68
2023/03/23 07:40:16;;;;;;;2.05;1.60;;;17.50;48.50;;;;;;5085936;27;45444;-68
2023/03/23 07:42:45;;;;;;;1.65;1.55;;;17.50;48.70;;;;;;5086112;27;45214;-68
2023/03/23 07:45:12;;;;;;;2.40;1.40;;;17.50;48.70;;;;;;5086198;27;45245;-68
2023/03/23 07:47:39;;;;;;;1.77;1.67;;;17.50;48.60;;;;;;5085601;27;45466;-67
2023/03/23 07:50:07;;;;;;;1.60;1.50;;;17.50;48.60;;;;;;5085854;27;45377;-67
2023/03/23 07:52:34;;;;;;;1.67;1.58;;;17.50;48.60;;;;;;5086109;27;45293;-67
2023/03/23 07:55:02;;;;;;;1.40;1.30;;;17.50;48.70;;;;;;5086133;27;45332;-67
2023/03/23 07:57:29;;;;;;;1.70;1.60;;;17.50;48.90;;;;;;5085571;27;45339;-67
2023/03/23 07:59:57;;;;;;;1.60;1.50;;;17.50;49.00;;;;;;5085649;27;45327;-67
2023/03/23 08:02:24;;;;;;;2.33;1.70;;;17.50;48.90;;;;;;5085896;27;45439;-67
2023/03/23 08:04:51;;;;;;;1.48;1.38;;;17.50;49.00;;;;;;5085977;27;45187;-67
2023/03/23 08:07:18;;;;;;;2.13;1.63;;;17.50;49.30;;;;;;5085235;28;46666;-67
2023/03/23 08:09:46;;;;;;;1.52;1.42;;;17.50;49.00;;;;;;5084796;27;45320;-67
2023/03/23 08:12:13;;;;;;;2.45;1.30;;;17.50;49.00;;;;;;5085535;28;45269;-67
2023/03/23 08:14:41;;;;;;;1.23;1.13;;;17.50;49.10;;;;;;5085874;27;45172;-67
2023/03/23 08:17:09;;;;;;;1.55;1.45;;;17.50;49.10;;;;;;5085817;27;45357;-67
2023/03/23 08:19:37;;;;;;;2.13;1.33;;;17.50;49.10;;;;;;5085417;27;45334;-67
2023/03/23 08:22:04;;;;;;;2.33;1.50;;;17.50;49.10;;;;;;5085566;27;45281;-67
2023/03/23 08:24:31;;;;;;;1.70;1.60;;;17.50;49.60;;;;;;5085520;27;45347;-67
2023/03/23 08:26:57;;;;;;;1.65;1.42;;;17.40;49.00;;;;;;5085246;27;45676;-66
2023/03/23 08:29:24;;;;;;;1.45;1.35;;;17.50;49.20;;;;;;5085118;27;45409;-67
2023/03/23 08:31:51;;;;;;;1.50;1.40;;;17.50;49.40;;;;;;5085438;27;45518;-67
2023/03/23 08:34:19;;;;;;;1.38;1.27;;;17.50;49.50;;;;;;5085706;27;45209;-66
2023/03/23 08:36:46;;;;;;;1.35;1.25;;;17.50;49.10;;;;;;5084956;27;46421;-67
2023/03/23 08:39:14;;;;;;;1.58;1.40;;;17.40;49.10;;;;;;5085417;27;45403;-67
2023/03/23 08:41:41;;;;;;;1.60;1.50;;;17.40;49.10;;;;;;5085282;27;45400;-66
2023/03/23 08:44:08;;;;;;;1.50;1.40;;;17.40;49.30;;;;;;5085564;27;45431;-67
2023/03/23 08:46:35;;;;;;;1.27;1.17;;;17.40;49.10;;;;;;5084860;27;45473;-67
2023/03/23 08:49:01;;;;;;;2.17;1.30;;;17.40;49.20;;;;;;5085282;27;45245;-65
2023/03/23 08:51:30;;;;;;;1.45;1.30;;;17.40;49.20;;;;;;5085324;27;45380;-66
2023/03/23 08:53:57;;;;;;;1.33;1.23;;;17.40;49.90;;;;;;5085460;27;45353;-67
2023/03/23 08:56:24;;;;;;;1.38;1.27;;;17.50;50.10;;;;;;5084854;27;45468;-67
2023/03/23 08:58:50;;;;;;;2.60;1.80;;;17.50;49.60;;;;;;5085305;27;45227;-67
2023/03/23 09:01:17;;;;;;;3.13;1.25;;;17.50;50.00;;;;;;5085053;27;45327;-67
2023/03/23 09:03:44;;;;;;;2.25;1.60;;;17.50;50.20;;;;;;5085261;27;45451;-67
2023/03/23 09:06:12;;;;;;;2.17;1.60;;;17.50;50.50;;;;;;5084780;27;46402;-67
2023/03/23 09:08:40;;;;;;;1.42;1.33;;;17.50;50.60;;;;;;5084876;27;45279;-67
2023/03/23 09:11:09;;;;;;;4.28;1.80;;;17.50;50.60;;;;;;5085091;27;45369;-67
2023/03/23 09:13:36;;;;;;;2.90;1.55;;;17.50;50.70;;;;;;5085109;27;45363;-67
2023/03/23 09:16:03;;;;;;;2.45;1.45;;;17.50;50.60;;;;;;5084624;27;45379;-67
2023/03/23 09:18:30;;;;;;;2.72;1.33;;;17.50;50.40;;;;;;5084724;27;45279;-67
2023/03/23 09:20:58;;;;;;;4.07;1.38;;;17.50;50.30;;;;;;5085156;27;45263;-67
2023/03/23 09:23:25;;;;;;;2.75;1.75;;;17.50;50.20;;;;;;5088283;27;45547;-67
2023/03/23 09:25:53;;;;;;;4.68;1.58;;;17.50;50.20;;;;;;5087669;27;45303;-67
2023/03/23 09:28:20;;;;;;;2.25;1.30;;;17.50;50.10;;;;;;5088025;27;45327;-67
2023/03/23 09:30:47;;;;;;;3.88;2.20;;;17.50;50.60;;;;;;5088144;27;45177;-67
2023/03/23 09:33:14;;;;;;;4.95;1.48;;;17.50;50.20;;;;;;5088413;27;45371;-67
2023/03/23 09:35:42;;;;;;;1.58;1.38;;;17.60;49.90;;;;;;5088087;27;45428;-69
2023/03/23 09:38:12;;;;;;;3.22;1.35;;;17.60;49.90;;;;;;5088021;27;45321;-68
2023/03/23 09:40:46;;;;;;;2.72;1.60;;;17.60;49.80;;;;;;5088144;27;45291;-69
2023/03/23 09:43:35;;;;;;;1.92;1.23;;;17.60;49.80;;;;;;5088291;27;45248;-69
2023/03/23 09:46:09;;;;;;;1.63;1.40;;;17.60;49.70;;;;;;5087621;27;45549;-68
2023/03/23 09:48:44;;;;;;;2.75;1.20;;;17.60;49.60;;;;;;5087818;27;45391;-67
2023/03/23 09:51:34;;;;;;;1.27;1.23;;;17.60;49.60;;;;;;5087985;27;45387;-68
2023/03/23 09:54:04;;;;;;;1.80;1.30;;;17.60;49.60;;;;;;5088107;27;45392;-68
2023/03/23 09:56:33;;;;;;;1.92;1.35;;;17.60;49.50;;;;;;5087516;27;45432;-69
2023/03/23 09:59:02;;;;;;;2.55;1.30;;;17.60;49.40;;;;;;5087779;27;45327;-68
2023/03/23 10:01:32;;;;;;;1.30;1.20;;;17.70;49.50;;;;;;5087709;27;45345;-67
2023/03/23 10:04:02;;;;;;;1.65;1.33;;;17.70;49.50;;;;;;5087910;27;45306;-67
2023/03/23 10:06:29;;;;;;;1.42;1.30;;;17.70;49.50;;;;;;5087431;27;46379;-67
2023/03/23 10:08:58;;;;;;;1.70;1.23;;;17.70;49.50;;;;;;5087434;27;45390;-67
2023/03/23 10:11:32;;;;;;;1.73;1.50;;;17.70;49.60;;;;;;5087605;27;45272;-67
2023/03/23 10:14:16;;;;;;;2.38;1.13;;;17.70;49.40;;;;;;5088019;27;45301;-67
2023/03/23 10:16:47;;;;;;;2.00;1.35;;;17.70;50.10;;;;;;5087307;27;45869;-67
2023/03/23 10:19:18;;;;;;;2.17;1.30;;;17.70;49.60;;;;;;5085909;27;45354;-67
2023/03/23 10:21:46;;;;;;;5.28;1.45;;;17.70;49.50;;;;;;5084871;27;45229;-67
2023/03/23 10:24:15;;;;;;;1.23;1.20;;;17.80;49.50;;;;;;5083078;27;45344;-66
2023/03/23 10:26:48;;;;;;;1.58;1.40;;;17.80;49.60;;;;;;5091175;27;45441;-67
2023/03/23 10:29:18;;;;;;;1.50;1.40;;;17.80;49.70;;;;;;5087102;27;45392;-68
2023/03/23 10:31:47;;;;;;;3.90;1.40;;;17.80;49.60;;;;;;5087388;27;45193;-67
2023/03/23 10:34:17;;;;;;;1.98;1.23;;;17.80;49.50;;;;;;5085812;27;45516;-67
2023/03/23 10:36:53;;;;;;;3.15;1.25;;;17.90;49.50;;;;;;5087256;27;47326;-67
2023/03/23 10:39:22;;;;;;;5.20;2.08;;;17.90;49.50;;;;;;5087296;27;45301;-67
2023/03/23 10:41:49;;;;;;;3.70;1.30;;;18.00;49.70;;;;;;5087351;27;45283;-67
2023/03/23 10:44:19;;;;;;;2.78;1.20;;;18.00;50.10;;;;;;5087387;27;45419;-67
2023/03/23 10:46:49;;;;;;;6.70;1.40;;;18.00;50.10;;;;;;5087083;27;47081;-67
2023/03/23 10:49:19;;;;;;;6.10;1.77;;;18.00;50.00;;;;;;5086973;27;45371;-67
2023/03/23 10:51:50;;;;;;;2.55;1.27;;;18.00;49.80;;;;;;5087147;27;45206;-67
2023/03/23 10:54:26;;;;;;;4.28;1.60;;;18.00;49.80;;;;;;5087359;27;45218;-67
2023/03/23 10:56:53;;;;;;;2.88;1.85;;;18.00;49.70;;;;;;5086906;27;45249;-67
2023/03/23 10:59:27;;;;;;;3.63;1.42;;;18.00;49.80;;;;;;5086943;27;45177;-67
2023/03/23 11:01:55;;;;;;;5.20;1.50;;;18.00;49.60;;;;;;5087137;27;45355;-67
2023/03/23 11:04:22;;;;;;;3.47;1.40;;;18.00;49.80;;;;;;5087283;27;45192;-67
2023/03/23 11:06:50;;;;;;;4.57;1.50;;;18.00;49.80;;;;;;5086455;27;46890;-67
2023/03/23 11:09:18;;;;;;;3.10;1.42;;;18.00;49.70;;;;;;5086497;28;45436;-67
2023/03/23 11:11:49;;;;;;;2.20;1.33;;;18.00;49.70;;;;;;5087148;27;45289;-67
2023/03/23 11:14:18;;;;;;;1.45;1.27;;;18.00;49.70;;;;;;5087072;27;45483;-67
2023/03/23 11:16:51;;;;;;;1.92;1.60;;;18.00;49.70;;;;;;5086492;27;47653;-67
2023/03/23 11:19:23;;;;;;;4.70;1.27;;;18.10;49.70;;;;;;5086671;27;45368;-67
2023/03/23 11:21:51;;;;;;;2.97;1.40;;;18.10;50.30;;;;;;5086699;27;45154;-67
2023/03/23 11:24:18;;;;;;;1.60;1.17;;;18.10;49.70;;;;;;5086678;27;45561;-66
2023/03/23 11:26:45;;;;;;;3.15;1.50;;;18.10;49.70;;;;;;5086414;27;47260;-67
2023/03/23 11:29:14;;;;;;;2.67;1.30;;;18.10;49.80;;;;;;5086365;27;45243;-67
2023/03/23 11:31:42;;;;;;;2.92;1.60;;;18.10;49.70;;;;;;5086635;27;45284;-67
2023/03/23 11:34:15;;;;;;;2.42;1.38;;;18.10;49.70;;;;;;5086752;27;45510;-67
2023/03/23 11:36:42;;;;;;;2.05;1.40;;;18.10;49.70;;;;;;5086097;27;45476;-68
2023/03/23 11:39:21;;;;;;;2.03;1.40;;;18.10;49.70;;;;;;5086397;27;45391;-67
2023/03/23 11:41:48;;;;;;;1.30;1.15;;;18.10;49.60;;;;;;5086461;27;45227;-67
2023/03/23 11:44:16;;;;;;;1.30;1.20;;;18.20;49.60;;;;;;5086524;27;45406;-67
2023/03/23 11:46:48;;;;;;;1.45;1.27;;;18.10;49.50;;;;;;5086155;27;45643;-69
2023/03/23 11:49:22;;;;;;;1.67;1.52;;;18.20;49.60;;;;;;5086164;27;45322;-67
2023/03/23 11:51:50;;;;;;;2.67;1.42;;;18.20;49.60;;;;;;5086344;27;45333;-68
2023/03/23 11:54:20;;;;;;;3.03;1.50;;;18.20;49.50;;;;;;5086431;27;45553;-69
2023/03/23 11:56:47;;;;;;;4.38;1.52;;;18.20;49.50;;;;;;5085999;27;46960;-69
2023/03/23 11:59:15;;;;;;;2.17;1.30;;;18.30;49.60;;;;;;5086303;27;45350;-69
2023/03/23 12:01:48;;;;;;;1.23;1.13;;;18.20;49.50;;;;;;5086134;27;45390;-68
2023/03/23 12:04:31;;;;;;;2.33;1.65;;;18.30;50.10;;;;;;5086274;27;45304;-68
2023/03/23 12:07:03;;;;;;;1.52;1.17;;;18.30;49.60;;;;;;5085925;27;45327;-69
2023/03/23 12:09:37;;;;;;;1.77;1.25;;;18.30;49.50;;;;;;5085915;27;45338;-68
2023/03/23 12:12:10;;;;;;;1.13;1.05;;;18.30;49.60;;;;;;5085976;27;45375;-69
2023/03/23 12:14:43;;;;;;;2.03;1.05;;;18.30;49.60;;;;;;5086256;27;45510;-68
2023/03/23 12:17:17;;;;;;;1.55;1.30;;;18.30;49.50;;;;;;5085815;27;45487;-68
2023/03/23 12:19:57;;;;;;;1.33;1.23;;;18.30;49.50;;;;;;5085701;27;45205;-69
2023/03/23 12:22:36;;;;;;;1.60;1.20;;;18.30;49.60;;;;;;5085910;27;45323;-68
2023/03/23 12:25:14;;;;;;;1.30;1.20;;;18.30;49.60;;;;;;5085820;27;45252;-69
2023/03/23 12:27:44;;;;;;;1.15;1.05;;;18.30;49.60;;;;;;5085569;27;45682;-68
2023/03/23 12:30:21;;;;;;;2.25;1.20;;;18.30;49.50;;;;;;5085836;27;45320;-68
2023/03/23 12:32:58;;;;;;;1.38;1.15;;;18.30;49.50;;;;;;5085938;27;45345;-68
2023/03/23 12:35:32;;;;;;;1.25;1.15;;;18.30;49.60;;;;;;5085867;27;45438;-68
2023/03/23 12:38:12;;;;;;;3.25;1.15;;;18.30;49.50;;;;;;5085509;27;45482;-68
2023/03/23 12:41:03;;;;;;;1.30;1.20;;;18.30;50.10;;;;;;5085476;27;45399;-68
2023/03/23 12:43:33;;;;;;;1.75;1.30;;;18.30;49.60;;;;;;5085523;27;45364;-68
2023/03/23 12:46:14;;;;;;;2.08;1.30;;;18.30;49.60;;;;;;5085695;27;45484;-68
2023/03/23 12:48:43;;;;;;;1.20;1.10;;;18.30;49.60;;;;;;5085203;27;45449;-68
2023/03/23 12:51:18;;;;;;;2.33;1.42;;;18.30;49.50;;;;;;5085169;27;45345;-68
2023/03/23 12:53:53;;;;;;;1.30;1.20;;;18.30;49.50;;;;;;5085390;27;45474;-68
2023/03/23 12:56:22;;;;;;;1.10;1.00;;;18.40;49.60;;;;;;5085677;27;45376;-68